createdAt,value
2023-04-23T00:00:07.184Z,17.70
2023-04-23T00:02:57.914Z,17.70
2023-04-23T00:05:46.187Z,17.60
2023-04-23T00:08:34.467Z,17.60
2023-04-23T00:11:22.399Z,17.50
2023-04-23T00:14:11.554Z,17.50
2023-04-23T00:16:59.043Z,17.50
2023-04-23T00:19:47.551Z,17.50
2023-04-23T00:22:35.107Z,17.40
2023-04-23T00:25:22.595Z,17.40
2023-04-23T00:28:10.113Z,17.30
2023-04-23T00:30:57.771Z,17.30
2023-04-23T00:33:45.293Z,17.30
2023-04-23T00:36:32.780Z,17.30
2023-04-23T00:39:20.319Z,17.20
2023-04-23T00:42:12.589Z,17.20
2023-04-23T00:45:02.201Z,17.20
2023-04-23T00:47:50.394Z,17.20
2023-04-23T00:50:38.133Z,17.20
2023-04-23T00:53:26.641Z,17.10
2023-04-23T00:56:14.964Z,17.20
2023-04-23T00:59:03.742Z,17.20
2023-04-23T01:01:52.137Z,17.20
2023-04-23T01:04:43.911Z,17.20
2023-04-23T01:07:35.987Z,17.20
2023-04-23T01:10:23.791Z,17.20
2023-04-23T01:13:13.832Z,17.20
2023-04-23T01:16:02.346Z,17.20
2023-04-23T01:18:49.874Z,17.20
2023-04-23T01:21:41.717Z,17.20
2023-04-23T01:24:32.915Z,17.30
2023-04-23T01:27:21.097Z,17.20
2023-04-23T01:30:09.586Z,17.20
2023-04-23T01:32:57.820Z,17.20
2023-04-23T01:35:47.704Z,17.20
2023-04-23T01:38:38.584Z,17.30
2023-04-23T01:41:26.070Z,17.20
2023-04-23T01:44:13.552Z,17.30
2023-04-23T01:47:01.135Z,17.30
2023-04-23T01:49:48.921Z,17.30
2023-04-23T01:52:36.636Z,17.40
2023-04-23T01:55:24.113Z,17.30
2023-04-23T01:58:11.587Z,17.40
2023-04-23T02:00:59.044Z,17.40
2023-04-23T02:03:49.420Z,17.40
2023-04-23T02:06:36.921Z,17.40
2023-04-23T02:09:24.411Z,17.40
2023-04-23T02:12:11.917Z,17.40
2023-04-23T02:14:59.502Z,17.40
2023-04-23T02:17:47.212Z,17.40
2023-04-23T02:20:38.808Z,17.40
2023-04-23T02:23:26.256Z,17.40
2023-04-23T02:26:13.761Z,17.40
2023-04-23T02:29:01.165Z,17.40
2023-04-23T02:31:48.625Z,17.40
2023-04-23T02:34:36.167Z,17.40
2023-04-23T02:37:24.161Z,17.40
2023-04-23T02:40:12.329Z,17.30
2023-04-23T02:42:59.800Z,17.30
2023-04-23T02:45:47.270Z,17.30
2023-04-23T02:48:42.164Z,17.30
2023-04-23T02:51:29.825Z,17.20
2023-04-23T02:54:18.322Z,17.20
2023-04-23T02:57:06.577Z,17.20
2023-04-23T02:59:54.281Z,17.30
2023-04-23T03:02:42.018Z,17.30
2023-04-23T03:05:30.291Z,17.40
2023-04-23T03:08:17.755Z,17.40
2023-04-23T03:11:05.251Z,17.50
2023-04-23T03:13:52.693Z,17.50
2023-04-23T03:16:40.220Z,17.60
2023-04-23T03:19:27.782Z,17.60
2023-04-23T03:22:15.408Z,17.60
2023-04-23T03:25:03.974Z,17.60
2023-04-23T03:27:52.093Z,17.60
2023-04-23T03:30:39.846Z,17.60
2023-04-23T03:33:27.794Z,17.70
2023-04-23T03:36:15.821Z,17.60
2023-04-23T03:39:03.283Z,17.70
2023-04-23T03:41:50.782Z,17.70
2023-04-23T03:44:38.388Z,17.80
2023-04-23T03:47:25.985Z,17.70
2023-04-23T03:50:13.596Z,17.70
2023-04-23T03:53:01.655Z,17.70
2023-04-23T03:55:49.104Z,17.70
2023-04-23T03:58:36.806Z,17.70
2023-04-23T04:01:24.388Z,17.70
2023-04-23T04:04:12.082Z,17.70
2023-04-23T04:07:01.155Z,17.80
2023-04-23T04:09:49.428Z,17.80
2023-04-23T04:12:37.057Z,17.80
2023-04-23T04:15:24.733Z,17.70
2023-04-23T04:18:12.205Z,17.40
2023-04-23T04:20:59.753Z,17.60
2023-04-23T04:23:47.318Z,17.90
2023-04-23T04:26:34.998Z,17.90
2023-04-23T04:29:24.051Z,18.10
2023-04-23T04:32:11.565Z,18.30
2023-04-23T04:34:59.092Z,18.10
2023-04-23T04:37:46.527Z,18.00
2023-04-23T04:40:34.960Z,17.80
2023-04-23T04:43:22.659Z,18.10
2023-04-23T04:46:11.871Z,18.40
2023-04-23T04:48:59.395Z,18.50
2023-04-23T04:51:46.923Z,18.60
2023-04-23T04:54:34.360Z,18.60
2023-04-23T04:57:23.280Z,18.70
2023-04-23T05:00:24.410Z,18.80
2023-04-23T05:03:14.327Z,18.90
2023-04-23T05:06:02.273Z,19.00
2023-04-23T05:08:49.876Z,19.20
2023-04-23T05:11:37.802Z,19.20
2023-04-23T05:14:26.771Z,19.40
2023-04-23T05:17:14.257Z,19.20
2023-04-23T05:20:01.942Z,19.50
2023-04-23T05:22:49.490Z,19.50
2023-04-23T05:25:36.994Z,19.60
2023-04-23T05:28:25.433Z,19.90
2023-04-23T05:31:13.089Z,20.20
2023-04-23T05:34:01.261Z,20.30
2023-04-23T05:36:48.744Z,20.40
2023-04-23T05:39:36.193Z,20.50
2023-04-23T05:42:24.199Z,20.70
2023-04-23T05:45:12.012Z,20.60
2023-04-23T05:48:00.226Z,20.90
2023-04-23T05:50:49.665Z,21.00
2023-04-23T05:53:37.219Z,21.10
2023-04-23T05:56:24.754Z,21.20
2023-04-23T05:59:12.316Z,21.30
2023-04-23T06:02:00.144Z,21.50
2023-04-23T06:04:48.158Z,21.50
2023-04-23T06:07:36.670Z,21.50
2023-04-23T06:10:24.130Z,21.50
2023-04-23T06:13:11.671Z,21.80
2023-04-23T06:15:59.831Z,21.60
2023-04-23T06:18:47.253Z,21.90
2023-04-23T06:21:34.812Z,22.20
2023-04-23T06:24:22.265Z,22.20
2023-04-23T06:27:09.725Z,22.50
2023-04-23T06:29:57.106Z,22.80
2023-04-23T06:32:44.643Z,23.00
2023-04-23T06:35:32.078Z,23.30
2023-04-23T06:38:21.374Z,23.40
2023-04-23T06:41:08.962Z,23.70
2023-04-23T06:43:56.595Z,23.90
2023-04-23T06:46:44.113Z,24.30
2023-04-23T06:49:31.827Z,24.40
2023-04-23T06:52:19.228Z,24.30
2023-04-23T06:55:08.092Z,24.40
2023-04-23T06:57:56.679Z,24.60
2023-04-23T07:00:44.439Z,24.70
2023-04-23T07:03:32.064Z,24.70
2023-04-23T07:06:19.564Z,24.50
2023-04-23T07:09:07.336Z,24.60
2023-04-23T07:11:55.124Z,24.70
2023-04-23T07:14:43.778Z,24.80
2023-04-23T07:17:31.541Z,24.70
2023-04-23T07:20:19.172Z,24.70
2023-04-23T07:23:06.822Z,24.70
2023-04-23T07:25:54.255Z,25.10
2023-04-23T07:28:41.687Z,25.10
2023-04-23T07:31:29.375Z,25.70
2023-04-23T07:34:16.920Z,25.70
2023-04-23T07:37:04.718Z,25.90
2023-04-23T07:39:53.780Z,25.80
2023-04-23T07:42:41.452Z,26.10
2023-04-23T07:45:28.932Z,26.50
2023-04-23T07:48:16.522Z,26.70
2023-04-23T07:51:04.145Z,26.80
2023-04-23T07:53:54.219Z,27.20
2023-04-23T07:56:43.345Z,27.20
2023-04-23T07:59:31.398Z,27.00
2023-04-23T08:02:23.794Z,27.30
2023-04-23T08:05:11.614Z,27.80
2023-04-23T08:07:59.217Z,27.00
2023-04-23T08:10:46.926Z,27.20
2023-04-23T08:13:34.582Z,27.70
2023-04-23T08:16:22.093Z,27.30
2023-04-23T08:19:09.566Z,27.30
2023-04-23T08:21:57.106Z,27.60
2023-04-23T08:24:46.422Z,28.10
2023-04-23T08:27:34.256Z,27.80
2023-04-23T08:30:21.867Z,28.20
2023-04-23T08:33:09.470Z,28.10
2023-04-23T08:35:56.985Z,28.50
2023-04-23T08:38:44.503Z,28.80
2023-04-23T08:41:42.825Z,28.50
2023-04-23T08:44:32.640Z,29.00
2023-04-23T08:47:24.791Z,28.70
2023-04-23T08:50:18.214Z,28.90
2023-04-23T08:53:07.496Z,28.90
2023-04-23T08:55:57.435Z,29.60
2023-04-23T08:58:47.575Z,29.20
2023-04-23T09:01:36.119Z,29.40
2023-04-23T09:04:25.656Z,29.90
2023-04-23T09:07:13.674Z,30.00
2023-04-23T09:10:07.093Z,30.30
2023-04-23T09:12:54.805Z,30.10
2023-04-23T09:15:45.404Z,30.10
2023-04-23T09:18:32.834Z,29.70
2023-04-23T09:21:21.496Z,30.30
2023-04-23T09:24:15.065Z,30.20
2023-04-23T09:27:03.883Z,30.20
2023-04-23T09:29:53.245Z,30.60
2023-04-23T09:32:44.232Z,30.00
2023-04-23T09:35:35.960Z,30.40
2023-04-23T09:38:23.523Z,30.60
2023-04-23T09:41:28.743Z,30.10
2023-04-23T09:44:24.656Z,30.40
2023-04-23T09:47:14.931Z,30.20
2023-04-23T09:50:03.061Z,30.60
2023-04-23T09:52:56.614Z,30.80
2023-04-23T09:55:46.252Z,30.60
2023-04-23T09:58:33.807Z,30.40
2023-04-23T10:01:30.005Z,30.50
2023-04-23T10:04:23.248Z,30.60
2023-04-23T10:07:19.730Z,31.10
2023-04-23T10:10:09.002Z,31.20
2023-04-23T10:12:57.370Z,31.70
2023-04-23T10:15:47.802Z,31.80
2023-04-23T10:18:38.094Z,31.70
2023-04-23T10:21:39.330Z,31.50
2023-04-23T10:24:33.976Z,32.00
2023-04-23T10:27:36.861Z,32.40
2023-04-23T10:30:33.159Z,32.00
2023-04-23T10:36:18.078Z,32.30
2023-04-23T10:39:09.415Z,32.20
2023-04-23T10:41:58.653Z,31.20
2023-04-23T10:44:57.983Z,31.60
2023-04-23T10:47:50.466Z,32.20
2023-04-23T10:50:50.927Z,32.40
2023-04-23T10:53:46.478Z,32.60
2023-04-23T10:56:34.069Z,32.90
2023-04-23T10:59:23.073Z,31.60
2023-04-23T11:02:13.431Z,32.20
2023-04-23T11:05:07.299Z,31.80
2023-04-23T11:08:18.727Z,32.30
2023-04-23T11:11:09.278Z,31.70
2023-04-23T11:13:57.318Z,31.90
2023-04-23T11:16:48.658Z,31.50
2023-04-23T11:19:38.606Z,31.40
2023-04-23T11:22:37.010Z,31.80
2023-04-23T11:25:27.981Z,31.80
2023-04-23T11:28:16.338Z,31.50
2023-04-23T11:31:03.805Z,31.90
2023-04-23T11:33:51.340Z,32.00
2023-04-23T11:36:40.334Z,31.50
2023-04-23T11:39:28.558Z,32.00
2023-04-23T11:42:17.511Z,32.00
2023-04-23T11:45:05.500Z,31.70
2023-04-23T11:47:56.414Z,31.90
2023-04-23T11:50:44.035Z,32.60
2023-04-23T11:53:31.701Z,32.30
2023-04-23T11:56:24.009Z,32.10
2023-04-23T11:59:11.893Z,31.80
2023-04-23T12:02:00.804Z,32.00
2023-04-23T12:04:48.474Z,31.50
2023-04-23T12:07:36.161Z,31.70
2023-04-23T12:10:24.521Z,31.80
2023-04-23T12:13:33.902Z,31.90
2023-04-23T12:16:36.292Z,31.80
2023-04-23T12:19:31.653Z,31.70
2023-04-23T12:22:28.426Z,32.10
2023-04-23T12:25:16.193Z,32.40
2023-04-23T12:28:07.877Z,32.30
2023-04-23T12:31:01.737Z,32.10
2023-04-23T12:33:59.026Z,31.80
2023-04-23T12:36:53.039Z,32.20
2023-04-23T12:39:40.959Z,32.10
2023-04-23T12:42:28.836Z,32.30
2023-04-23T12:45:16.421Z,32.10
2023-04-23T12:48:04.360Z,32.30
2023-04-23T12:50:52.043Z,32.00
2023-04-23T12:53:39.548Z,32.20
2023-04-23T12:56:27.198Z,31.80
2023-04-23T12:59:14.643Z,31.80
2023-04-23T13:02:03.855Z,32.00
2023-04-23T13:04:51.853Z,32.00
2023-04-23T13:07:39.474Z,32.20
2023-04-23T13:10:27.401Z,32.40
2023-04-23T13:13:14.881Z,32.30
2023-04-23T13:16:02.455Z,31.90
2023-04-23T13:18:51.742Z,32.40
2023-04-23T13:21:40.028Z,33.00
2023-04-23T13:24:27.491Z,31.50
2023-04-23T13:27:15.506Z,31.80
2023-04-23T13:30:03.452Z,31.30
2023-04-23T13:32:50.996Z,31.60
2023-04-23T13:35:38.666Z,31.50
2023-04-23T13:38:27.617Z,31.40
2023-04-23T13:41:15.092Z,31.90
2023-04-23T13:44:02.736Z,31.60
2023-04-23T13:46:50.989Z,31.50
2023-04-23T13:49:38.841Z,31.20
2023-04-23T13:52:26.274Z,31.40
2023-04-23T13:55:13.811Z,31.20
2023-04-23T13:58:01.300Z,31.20
2023-04-23T14:00:49.087Z,31.60
2023-04-23T14:03:36.609Z,31.20
2023-04-23T14:06:24.100Z,31.90
2023-04-23T14:09:12.212Z,31.60
2023-04-23T14:11:59.779Z,31.30
2023-04-23T14:14:47.226Z,31.50
2023-04-23T14:17:37.740Z,31.40
2023-04-23T14:20:25.464Z,31.40
2023-04-23T14:23:28.160Z,31.30
2023-04-23T14:26:48.077Z,32.00
2023-04-23T14:29:46.310Z,31.50
2023-04-23T14:32:34.253Z,31.50
2023-04-23T14:35:32.492Z,31.80
2023-04-23T14:38:30.313Z,31.50
2023-04-23T14:41:17.870Z,31.90
2023-04-23T14:44:05.419Z,31.70
2023-04-23T14:46:56.548Z,32.00
2023-04-23T14:49:45.825Z,32.00
2023-04-23T14:52:33.551Z,32.00
2023-04-23T14:55:22.774Z,32.10
2023-04-23T14:58:10.352Z,32.60
2023-04-23T15:00:57.852Z,32.80
2023-04-23T15:03:46.455Z,32.70
2023-04-23T15:06:34.423Z,32.80
2023-04-23T15:09:21.831Z,32.40
2023-04-23T15:12:31.917Z,32.70
2023-04-23T15:16:02.328Z,32.80
2023-04-23T15:18:51.191Z,32.90
2023-04-23T15:21:39.286Z,32.70
2023-04-23T15:24:29.333Z,32.50
2023-04-23T15:27:16.814Z,32.70
2023-04-23T15:30:05.398Z,32.90
2023-04-23T15:32:57.634Z,33.10
2023-04-23T15:35:45.249Z,32.70
2023-04-23T15:38:32.957Z,32.40
2023-04-23T15:41:20.384Z,32.30
2023-04-23T15:44:12.982Z,32.20
2023-04-23T15:47:01.472Z,31.80
2023-04-23T15:49:50.143Z,31.60
2023-04-23T15:52:38.319Z,31.10
2023-04-23T15:55:26.162Z,30.90
2023-04-23T15:58:13.755Z,30.70
2023-04-23T16:01:03.104Z,30.90
2023-04-23T16:03:57.987Z,31.20
2023-04-23T16:06:55.942Z,31.40
2023-04-23T16:09:43.716Z,31.70
2023-04-23T16:12:32.854Z,31.20
2023-04-23T16:15:20.379Z,30.60
2023-04-23T16:18:07.958Z,30.50
2023-04-23T16:20:55.673Z,30.00
2023-04-23T16:23:43.196Z,30.00
2023-04-23T16:26:30.755Z,29.70
2023-04-23T16:29:22.678Z,29.80
2023-04-23T16:32:10.625Z,29.80
2023-04-23T16:34:58.151Z,29.90
2023-04-23T16:37:45.791Z,29.40
2023-04-23T16:40:34.778Z,28.70
2023-04-23T16:43:22.249Z,28.00
2023-04-23T16:46:10.749Z,27.80
2023-04-23T16:48:58.286Z,27.00
2023-04-23T16:51:45.969Z,26.90
2023-04-23T16:54:36.008Z,26.60
2023-04-23T16:57:23.464Z,25.80
2023-04-23T17:00:12.798Z,25.60
2023-04-23T17:03:00.451Z,26.00
2023-04-23T17:06:07.860Z,26.30
2023-04-23T17:08:57.939Z,25.70
2023-04-23T17:11:45.396Z,25.50
2023-04-23T17:14:32.939Z,24.90
2023-04-23T17:17:20.521Z,25.30
2023-04-23T17:20:09.038Z,25.40
2023-04-23T17:22:56.522Z,25.10
2023-04-23T17:25:44.026Z,25.00
2023-04-23T17:28:31.706Z,24.80
2023-04-23T17:31:19.283Z,24.90
2023-04-23T17:34:06.799Z,25.10
2023-04-23T17:36:54.259Z,25.10
2023-04-23T17:39:41.790Z,24.70
2023-04-23T17:42:29.316Z,24.80
2023-04-23T17:45:18.822Z,24.60
2023-04-23T17:48:06.667Z,24.20
2023-04-23T17:50:54.804Z,23.80
2023-04-23T17:53:42.540Z,23.90
2023-04-23T17:56:30.089Z,23.60
2023-04-23T17:59:17.625Z,23.50
2023-04-23T18:02:05.315Z,23.80
2023-04-23T18:04:52.988Z,23.80
2023-04-23T18:07:42.968Z,23.50
2023-04-23T18:10:31.020Z,23.40
2023-04-23T18:13:18.703Z,23.30
2023-04-23T18:16:06.310Z,23.40
2023-04-23T18:18:53.828Z,23.40
2023-04-23T18:21:41.399Z,23.40
2023-04-23T18:24:28.942Z,23.60
2023-04-23T18:27:17.571Z,23.40
2023-04-23T18:30:08.348Z,23.40
2023-04-23T18:33:11.073Z,23.40
2023-04-23T18:36:05.851Z,23.40
2023-04-23T18:38:53.979Z,23.30
2023-04-23T18:41:41.473Z,23.20
2023-04-23T18:44:29.260Z,23.10
2023-04-23T18:47:19.713Z,23.20
2023-04-23T18:50:43.823Z,22.90
2023-04-23T18:53:37.283Z,23.10
2023-04-23T18:56:25.253Z,22.80
2023-04-23T18:59:14.151Z,22.90
2023-04-23T19:02:03.554Z,23.00
2023-04-23T19:04:51.407Z,22.80
2023-04-23T19:07:41.388Z,22.50
2023-04-23T19:10:29.353Z,22.40
2023-04-23T19:13:17.230Z,22.80
2023-04-23T19:16:04.819Z,22.70
2023-04-23T19:18:52.398Z,22.80
2023-04-23T19:21:40.026Z,22.80
2023-04-23T19:24:29.026Z,22.70
2023-04-23T19:27:16.489Z,22.70
2023-04-23T19:30:10.306Z,22.60
2023-04-23T19:32:57.984Z,22.40
2023-04-23T19:35:48.690Z,22.20
2023-04-23T19:38:36.125Z,22.30
2023-04-23T19:41:23.915Z,22.20
2023-04-23T19:44:11.362Z,22.30
2023-04-23T19:46:58.981Z,22.00
2023-04-23T19:49:47.050Z,21.90
2023-04-23T19:52:34.881Z,21.60
2023-04-23T19:55:27.112Z,21.40
2023-04-23T19:58:16.250Z,21.50
2023-04-23T20:01:03.768Z,21.30
2023-04-23T20:03:53.945Z,21.00
2023-04-23T20:06:41.958Z,21.20
2023-04-23T20:09:29.643Z,21.30
2023-04-23T20:12:17.467Z,21.30
2023-04-23T20:15:06.665Z,21.30
2023-04-23T20:17:54.894Z,21.30
2023-04-23T20:20:42.831Z,21.20
2023-04-23T20:23:30.311Z,21.00
2023-04-23T20:26:19.535Z,20.70
2023-04-23T20:29:08.161Z,20.60
2023-04-23T20:31:55.690Z,20.40
2023-04-23T20:34:43.183Z,20.40
2023-04-23T20:37:30.662Z,20.30
2023-04-23T20:40:19.266Z,20.30
2023-04-23T20:43:07.478Z,20.30
2023-04-23T20:45:55.810Z,20.30
2023-04-23T20:48:43.494Z,20.20
2023-04-23T20:51:35.539Z,20.00
2023-04-23T20:54:23.138Z,20.20
2023-04-23T20:57:11.262Z,20.00
2023-04-23T20:59:58.744Z,20.10
2023-04-23T21:02:46.793Z,20.20
2023-04-23T21:05:34.413Z,20.00
2023-04-23T21:08:21.881Z,19.70
2023-04-23T21:11:17.840Z,19.50
2023-04-23T21:14:08.887Z,19.40
2023-04-23T21:16:56.994Z,19.30
2023-04-23T21:19:44.609Z,19.30
2023-04-23T21:22:32.615Z,19.20
2023-04-23T21:25:20.186Z,19.20
2023-04-23T21:28:07.657Z,19.20
2023-04-23T21:30:57.673Z,19.10
2023-04-23T21:33:45.455Z,19.10
2023-04-23T21:36:33.046Z,19.10
2023-04-23T21:39:21.190Z,19.00
2023-04-23T21:42:08.684Z,19.00
2023-04-23T21:44:56.340Z,19.00
2023-04-23T21:47:44.058Z,19.00
2023-04-23T21:50:33.146Z,18.90
2023-04-23T21:53:22.582Z,18.90
2023-04-23T21:56:10.309Z,19.20
2023-04-23T21:58:57.899Z,19.30
2023-04-23T22:01:45.719Z,19.40
2023-04-23T22:04:34.240Z,19.40
2023-04-23T22:07:22.975Z,19.40
2023-04-23T22:10:13.419Z,19.50
2023-04-23T22:13:01.352Z,19.40
2023-04-23T22:15:49.326Z,19.30
2023-04-23T22:18:38.662Z,19.30
2023-04-23T22:21:26.151Z,19.30
2023-04-23T22:24:13.649Z,19.30
2023-04-23T22:27:02.041Z,19.20
2023-04-23T22:29:49.669Z,19.20
2023-04-23T22:32:39.178Z,19.20
2023-04-23T22:35:26.817Z,19.40
2023-04-23T22:38:14.436Z,18.90
2023-04-23T22:41:02.389Z,19.10
2023-04-23T22:43:50.221Z,19.10
2023-04-23T22:46:37.941Z,19.00
2023-04-23T22:49:25.717Z,19.00
2023-04-23T22:52:14.445Z,19.00
2023-04-23T22:55:02.346Z,18.90
2023-04-23T22:57:49.959Z,18.80
2023-04-23T23:00:37.449Z,18.90
2023-04-23T23:03:25.742Z,18.80
2023-04-23T23:06:13.502Z,18.70
2023-04-23T23:09:00.988Z,18.70
2023-04-23T23:11:48.683Z,18.70
2023-04-23T23:14:37.933Z,18.70
2023-04-23T23:17:25.744Z,18.80
2023-04-23T23:20:13.576Z,18.70
2023-04-23T23:23:01.295Z,18.80
2023-04-23T23:25:48.773Z,19.00
2023-04-23T23:28:36.378Z,19.20
2023-04-23T23:31:26.132Z,19.40
2023-04-23T23:34:13.837Z,19.40
2023-04-23T23:37:01.396Z,19.80
2023-04-23T23:39:48.899Z,19.90
2023-04-23T23:42:36.511Z,20.20
2023-04-23T23:45:24.209Z,20.30
2023-04-23T23:48:11.795Z,20.30
2023-04-23T23:50:59.483Z,20.50
2023-04-23T23:53:47.081Z,20.40
2023-04-23T23:56:34.556Z,20.70
2023-04-23T23:59:22.017Z,21.10
